Time;durP1;ratioP1;P1;durP2;ratioP2;P2;SDS_P1;SDS_P2;PMS_P1;PMS_P2;Temp;Humidity;BMP_temperature;BMP_pressure;BME280_temperature;BME280_humidity;BME280_pressure;Samples;Min_cycle;Max_cycle;Signal;HPM_P1;HPM_P2
2023/06/13 00:04:48;;;;;;;5.10;2.88;;;;;;;13.66;52.01;97801.66;10571070;28;20474;-69
2023/06/13 00:10:09;;;;;;;4.47;2.67;;;;;;;13.54;52.42;97812.94;10571200;28;20508;-68
2023/06/13 00:15:31;;;;;;;6.93;2.58;;;;;;;13.53;52.63;97810.75;10570714;28;20115;-68
2023/06/13 00:20:54;;;;;;;3.40;2.55;;;;;;;13.49;53.01;97807.69;10570867;28;20078;-68
2023/06/13 00:26:15;;;;;;;10.35;3.22;;;;;;;13.42;53.87;97807.38;10570998;28;20078;-68
2023/06/13 00:31:40;;;;;;;6.32;3.13;;;;;;;13.27;53.92;97799.47;10557488;28;20470;-68
2023/06/13 00:37:03;;;;;;;7.15;3.17;;;;;;;13.24;54.38;97803.50;10585178;28;20048;-68
2023/06/13 00:42:25;;;;;;;5.20;3.13;;;;;;;13.31;54.38;97796.91;10556087;28;20063;-68
2023/06/13 00:47:51;;;;;;;5.88;3.38;;;;;;;13.15;54.66;97795.94;10555826;28;20035;-69
2023/06/13 00:53:16;;;;;;;5.47;2.85;;;;;;;13.01;55.22;97781.81;10570254;28;20426;-69
2023/06/13 00:58:37;;;;;;;4.63;2.80;;;;;;;13.02;55.53;97774.88;10556397;28;20044;-69
2023/06/13 01:03:59;;;;;;;4.18;2.80;;;;;;;12.95;55.62;97784.28;10568938;28;20127;-68
2023/06/13 01:09:21;;;;;;;5.63;3.58;;;;;;;12.94;56.19;97776.50;10569256;28;20170;-69
2023/06/13 01:15:07;;;;;;;6.03;3.13;;;;;;;12.87;56.58;97784.53;10554726;28;20036;-69
2023/06/13 01:20:29;;;;;;;5.32;3.28;;;;;;;12.82;56.93;97784.88;10571753;28;20118;-68
2023/06/13 01:25:57;;;;;;;9.20;3.60;;;;;;;12.89;57.42;97779.03;10554130;28;20127;-68
2023/06/13 01:31:17;;;;;;;6.05;3.67;;;;;;;12.94;57.20;97780.03;10567817;28;20110;-69
2023/06/13 01:36:38;;;;;;;7.15;3.78;;;;;;;12.96;56.68;97762.59;10539460;28;20052;-69
2023/06/13 01:41:59;;;;;;;7.70;4.03;;;;;;;12.99;57.14;97766.97;10539560;28;20067;-69
2023/06/13 01:47:27;;;;;;;9.95;3.85;;;;;;;13.01;57.58;97769.88;10567532;28;20070;-68
2023/06/13 01:53:07;;;;;;;7.80;3.92;;;;;;;12.97;57.63;97764.06;10553395;28;20110;-69
2023/06/13 01:59:04;;;;;;;7.75;3.72;;;;;;;12.95;58.40;97769.53;10554208;28;20166;-68
2023/06/13 02:04:26;;;;;;;6.32;3.20;;;;;;;12.84;58.56;97774.56;10466032;28;20461;-69
2023/06/13 02:09:46;;;;;;;7.60;3.83;;;;;;;12.76;58.69;97776.88;10567013;28;20120;-69
2023/06/13 02:15:10;;;;;;;6.55;3.88;;;;;;;12.69;58.93;97769.44;10567009;28;20161;-69
2023/06/13 02:20:31;;;;;;;9.02;4.05;;;;;;;12.66;59.35;97769.94;10538677;28;20112;-69
2023/06/13 02:25:53;;;;;;;5.22;3.92;;;;;;;12.66;59.50;97758.75;10581734;28;20127;-68
2023/06/13 02:31:15;;;;;;;6.05;4.10;;;;;;;12.57;59.46;97757.53;10581379;28;20117;-69
2023/06/13 02:36:36;;;;;;;6.50;3.63;;;;;;;12.49;59.79;97752.16;10581283;28;20477;-69
2023/06/13 02:41:57;;;;;;;7.97;3.92;;;;;;;12.41;60.16;97756.53;10565898;28;20111;-69
2023/06/13 02:47:19;;;;;;;5.80;3.45;;;;;;;12.41;60.36;97767.75;10572048;28;20070;-68
2023/06/13 02:52:41;;;;;;;7.73;3.33;;;;;;;12.41;60.74;97765.66;10560313;28;20071;-69
2023/06/13 02:58:02;;;;;;;9.13;3.55;;;;;;;12.39;60.87;97756.44;10574192;28;20354;-69
2023/06/13 03:03:23;;;;;;;5.57;3.50;;;;;;;12.39;60.64;97759.22;10559886;28;20070;-69
2023/06/13 03:08:48;;;;;;;13.60;7.60;;;;;;;12.37;61.01;97764.72;10573453;28;20119;-69
2023/06/13 03:14:08;;;;;;;12.13;8.60;;;;;;;12.42;61.02;97761.53;10559128;28;20538;-69
2023/06/13 03:19:30;;;;;;;10.23;6.78;;;;;;;12.52;61.29;97762.13;10572910;28;20036;-69
2023/06/13 03:24:52;;;;;;;10.77;7.53;;;;;;;12.61;60.91;97752.16;10573288;28;20114;-69
2023/06/13 03:30:13;;;;;;;9.68;5.57;;;;;;;12.61;61.19;97758.47;10558741;28;20537;-69
2023/06/13 03:35:36;;;;;;;8.05;5.85;;;;;;;12.77;61.13;97753.13;10558619;28;20063;-68
2023/06/13 03:40:59;;;;;;;7.37;4.90;;;;;;;12.91;61.03;97767.22;10572380;28;20119;-69
2023/06/13 03:46:20;;;;;;;7.72;4.35;;;;;;;13.07;60.99;97750.63;10557923;28;20308;-69
2023/06/13 03:51:41;;;;;;;7.35;3.90;;;;;;;13.11;60.77;97762.06;10558019;28;20115;-69
2023/06/13 03:57:02;;;;;;;7.50;4.30;;;;;;;13.22;60.86;97766.22;10571178;28;20069;-68
2023/06/13 04:02:23;;;;;;;7.30;4.60;;;;;;;13.31;60.73;97768.84;10557489;28;20051;-69
2023/06/13 04:07:45;;;;;;;6.35;4.03;;;;;;;13.49;60.62;97760.75;10557065;28;20047;-69
2023/06/13 04:13:05;;;;;;;5.53;3.78;;;;;;;13.72;60.23;97765.56;10571096;28;20047;-69
2023/06/13 04:18:27;;;;;;;5.65;3.92;;;;;;;13.88;60.07;97760.81;10556605;28;20043;-68
2023/06/13 04:23:52;;;;;;;9.43;4.25;;;;;;;14.13;59.90;97757.25;10571052;28;20039;-68
2023/06/13 04:29:16;;;;;;;5.63;3.50;;;;;;;14.40;59.68;97764.28;10570380;28;20035;-70
2023/06/13 04:34:41;;;;;;;8.32;3.45;;;;;;;14.62;59.13;97757.06;10570527;28;20040;-68
2023/06/13 04:40:05;;;;;;;6.53;4.30;;;;;;;14.89;58.43;97761.94;10570105;28;20039;-69
2023/06/13 04:45:27;;;;;;;6.00;4.45;;;;;;;15.06;57.77;97771.94;10584564;28;20455;-69
2023/06/13 04:50:49;;;;;;;8.38;5.13;;;;;;;15.21;56.99;97764.91;10569418;28;20046;-69
2023/06/13 04:56:10;;;;;;;10.70;4.43;;;;;;;15.40;56.23;97756.75;10554651;28;20508;-69
2023/06/13 05:01:32;;;;;;;11.32;4.63;;;;;;;15.69;56.10;97756.06;10583835;28;20489;-68
2023/06/13 05:06:53;;;;;;;10.30;5.13;;;;;;;15.96;56.03;97762.94;10564282;28;20044;-69
2023/06/13 05:12:14;;;;;;;15.80;6.10;;;;;;;16.20;56.05;97755.59;10579960;28;20077;-68
2023/06/13 05:17:37;;;;;;;11.15;5.28;;;;;;;16.31;56.06;97748.38;10580716;28;20044;-69
2023/06/13 05:23:01;;;;;;;9.85;5.00;;;;;;;16.80;56.31;97750.53;10541308;28;20044;-69
2023/06/13 05:28:22;;;;;;;10.18;5.13;;;;;;;17.15;55.15;97755.53;10554780;28;20085;-69
2023/06/13 05:33:43;;;;;;;8.95;5.22;;;;;;;17.53;54.74;97753.56;10567865;28;20040;-69
2023/06/13 05:39:04;;;;;;;7.68;4.95;;;;;;;18.00;53.53;97742.06;10553371;28;20036;-69
2023/06/13 05:44:24;;;;;;;8.57;4.88;;;;;;;18.50;52.85;97750.97;10553022;28;20477;-69
2023/06/13 05:49:47;;;;;;;8.18;5.45;;;;;;;18.53;51.53;97741.19;10582390;28;20042;-68
2023/06/13 05:55:09;;;;;;;9.98;4.13;;;;;;;18.99;51.57;97735.03;10553065;28;20039;-68
2023/06/13 06:00:30;;;;;;;6.80;4.05;;;;;;;20.13;49.79;97733.75;10567041;28;20481;-68
2023/06/13 06:05:54;;;;;;;7.28;2.53;;;;;;;21.15;46.57;97730.94;10567062;28;20050;-68
2023/06/13 06:11:15;;;;;;;5.15;2.10;;;;;;;21.88;43.12;97727.06;10552469;28;20446;-68
2023/06/13 06:16:36;;;;;;;4.28;2.10;;;;;;;22.30;37.94;97729.44;10581322;28;20044;-68
2023/06/13 06:21:58;;;;;;;7.55;1.88;;;;;;;22.31;37.46;97724.47;10566038;28;20085;-68
2023/06/13 06:27:18;;;;;;;3.60;1.95;;;;;;;22.39;34.52;97711.13;10581243;28;20347;-68
2023/06/13 06:32:39;;;;;;;3.80;1.50;;;;;;;22.72;33.88;97717.47;10566055;28;20089;-68
2023/06/13 06:38:01;;;;;;;3.85;1.95;;;;;;;23.34;33.17;97712.19;10534837;28;20121;-68
2023/06/13 06:43:22;;;;;;;5.30;2.10;;;;;;;23.52;32.41;97713.91;10551797;28;20040;-69
2023/06/13 06:48:43;;;;;;;3.33;1.83;;;;;;;24.14;32.00;97714.16;10551811;28;20546;-68
2023/06/13 06:54:03;;;;;;;6.47;2.70;;;;;;;24.86;31.42;97715.03;10565500;28;20389;-68
2023/06/13 06:59:25;;;;;;;6.07;1.90;;;;;;;25.52;31.00;97712.09;10565574;28;20051;-68
2023/06/13 07:04:46;;;;;;;4.72;2.03;;;;;;;26.17;30.36;97726.16;10551015;28;20481;-68
2023/06/13 07:10:07;;;;;;;6.30;1.80;;;;;;;26.84;29.76;97732.19;10565327;28;20050;-68
2023/06/13 07:15:28;;;;;;;7.53;2.78;;;;;;;26.48;28.13;97733.50;10537109;28;20046;-68
2023/06/13 07:20:49;;;;;;;7.95;2.60;;;;;;;25.94;29.03;97731.00;10550968;28;20044;-68
2023/06/13 07:26:11;;;;;;;5.72;3.05;;;;;;;25.66;29.44;97729.34;10551438;28;20469;-68
2023/06/13 07:31:33;;;;;;;4.70;3.08;;;;;;;25.37;30.03;97736.97;10567867;28;20051;-68
2023/06/13 07:36:54;;;;;;;6.68;3.03;;;;;;;24.82;30.25;97733.56;10558381;28;20048;-69
2023/06/13 07:42:15;;;;;;;8.97;2.20;;;;;;;25.26;29.71;97718.31;10572323;28;20168;-69
2023/06/13 07:47:36;;;;;;;7.22;2.45;;;;;;;25.30;29.35;97712.66;10572282;28;20044;-68
2023/06/13 07:52:57;;;;;;;4.70;2.00;;;;;;;25.42;28.23;97712.03;10571998;28;20040;-69
2023/06/13 07:58:18;;;;;;;6.28;2.08;;;;;;;25.55;27.06;97710.69;10571751;28;20036;-69
2023/06/13 08:03:39;;;;;;;5.07;1.88;;;;;;;25.89;26.08;97718.84;10586882;28;20052;-69
2023/06/13 08:09:01;;;;;;;6.63;2.10;;;;;;;25.87;25.24;97715.97;10557371;28;20101;-68
2023/06/13 08:14:22;;;;;;;5.43;2.03;;;;;;;25.66;25.30;97720.06;10556902;28;20043;-69
2023/06/13 08:19:48;;;;;;;3.50;1.80;;;;;;;26.09;25.33;97714.66;10543150;28;20397;-69
2023/06/13 08:25:10;;;;;;;4.20;1.83;;;;;;;26.94;24.33;97703.59;10570675;28;20409;-69
2023/06/13 08:30:31;;;;;;;5.18;2.15;;;;;;;27.39;23.18;97704.34;10570447;28;20043;-69
2023/06/13 08:35:52;;;;;;;6.40;1.30;;;;;;;28.09;22.05;97705.03;10569991;28;20039;-69
2023/06/13 08:41:13;;;;;;;5.40;1.95;;;;;;;27.20;21.72;97702.91;10555851;28;20035;-69
2023/06/13 08:46:36;;;;;;;4.20;1.48;;;;;;;27.18;21.74;97702.91;10555627;28;20389;-69
2023/06/13 08:51:57;;;;;;;4.20;1.50;;;;;;;27.23;21.42;97695.78;10584884;28;20043;-69
2023/06/13 08:57:19;;;;;;;9.35;1.70;;;;;;;27.93;20.74;97699.34;10569304;28;20042;-69
2023/06/13 09:02:43;;;;;;;4.68;1.38;;;;;;;28.34;20.10;97691.34;10569283;28;20397;-69
2023/06/13 09:08:04;;;;;;;3.25;1.70;;;;;;;27.94;18.97;97686.44;10555879;28;20071;-69
2023/06/13 09:13:45;;;;;;;4.10;1.73;;;;;;;27.90;18.85;97692.19;10557150;28;20047;-69
2023/06/13 09:19:07;;;;;;;6.78;1.45;;;;;;;27.48;18.45;97690.75;10568836;28;20051;-69
2023/06/13 09:24:29;;;;;;;6.88;1.85;;;;;;;28.28;19.07;97682.00;10554005;28;20048;-69
2023/06/13 09:29:51;;;;;;;9.23;1.92;;;;;;;28.69;18.50;97671.81;10568393;28;20040;-69
2023/06/13 09:35:12;;;;;;;3.50;1.77;;;;;;;29.19;18.57;97667.19;10553927;28;20412;-69
2023/06/13 09:40:47;;;;;;;4.85;1.90;;;;;;;29.40;17.85;97658.41;10567337;28;20043;-69
2023/06/13 09:46:12;;;;;;;4.22;1.60;;;;;;;29.34;17.94;97662.78;10553365;28;20477;-69
2023/06/13 09:51:33;;;;;;;5.65;1.90;;;;;;;28.95;18.42;97642.25;10553192;28;20086;-69
2023/06/13 09:56:56;;;;;;;6.20;1.88;;;;;;;27.40;19.30;97659.22;10566499;28;20051;-69
2023/06/13 10:02:19;;;;;;;4.18;1.92;;;;;;;26.75;20.11;97656.28;10566852;28;20386;-69
2023/06/13 10:07:41;;;;;;;6.63;2.10;;;;;;;27.18;20.40;97656.38;10539162;28;20074;-69
2023/06/13 10:13:03;;;;;;;3.80;1.75;;;;;;;27.92;19.31;97649.16;10552435;28;20039;-69
2023/06/13 10:18:27;;;;;;;8.13;1.70;;;;;;;28.31;18.74;97626.09;10535588;28;20048;-69
2023/06/13 10:23:49;;;;;;;6.60;1.83;;;;;;;28.41;18.43;97623.16;10538501;28;20101;-69
2023/06/13 10:29:33;;;;;;;4.00;1.27;;;;;;;28.56;18.02;97618.03;10552615;28;20481;-69
2023/06/13 10:35:44;;;;;;;4.15;1.50;;;;;;;29.13;17.83;97615.53;10565887;28;20039;-69
2023/06/13 10:41:26;;;;;;;5.00;1.58;;;;;;;28.67;16.63;97610.81;10521278;28;20059;-69
2023/06/13 10:46:47;;;;;;;3.60;1.58;;;;;;;28.64;17.33;97598.63;10565920;28;20044;-69
2023/06/13 10:52:15;;;;;;;4.47;1.80;;;;;;;28.66;16.89;97595.00;10581190;28;20564;-69
2023/06/13 10:57:49;;;;;;;5.32;1.73;;;;;;;29.18;16.66;97585.31;10565255;28;20045;-69
2023/06/13 11:03:11;;;;;;;4.68;1.48;;;;;;;29.35;15.95;97595.22;10551720;28;20382;-69
2023/06/13 11:08:32;;;;;;;4.20;1.75;;;;;;;27.85;16.50;97576.03;10557760;28;20053;-69
2023/06/13 11:13:54;;;;;;;2.80;1.30;;;;;;;27.90;16.86;97575.31;10588969;28;20044;-69
2023/06/13 11:19:17;;;;;;;4.85;1.70;;;;;;;27.79;17.18;97562.41;10588662;28;20070;-69
2023/06/13 11:24:40;;;;;;;2.63;1.42;;;;;;;28.35;17.09;97557.16;10545193;28;20104;-69
2023/06/13 11:30:01;;;;;;;6.10;1.58;;;;;;;28.52;17.16;97549.88;10559326;28;20047;-69
2023/06/13 11:35:22;;;;;;;3.03;1.20;;;;;;;28.71;17.27;97544.72;10558503;28;20063;-69
2023/06/13 11:40:43;;;;;;;4.37;1.30;;;;;;;29.85;17.05;97538.63;10587790;28;20039;-70
2023/06/13 11:46:05;;;;;;;3.30;1.20;;;;;;;29.14;16.67;97525.00;10558092;28;20386;-69
2023/06/13 11:51:30;;;;;;;3.90;1.47;;;;;;;26.82;17.83;97534.59;10572282;28;20047;-69
2023/06/13 11:56:52;;;;;;;6.10;1.58;;;;;;;25.33;18.75;97528.41;10572276;28;20090;-69
2023/06/13 12:02:14;;;;;;;4.50;1.33;;;;;;;25.82;19.32;97514.38;10557267;28;20056;-69
2023/06/13 12:07:35;;;;;;;3.15;1.63;;;;;;;25.86;19.20;97511.53;10557764;28;20047;-69
2023/06/13 12:12:57;;;;;;;6.90;1.95;;;;;;;26.62;18.64;97498.09;10571151;28;20406;-69
2023/06/13 12:18:18;;;;;;;4.47;1.47;;;;;;;27.61;18.64;97477.19;10585487;28;20036;-70
2023/06/13 12:23:39;;;;;;;6.60;1.50;;;;;;;28.79;17.61;97482.22;10556618;28;20043;-70
2023/06/13 12:29:03;;;;;;;5.63;1.73;;;;;;;29.38;16.33;97485.97;10570497;28;20043;-69
2023/06/13 12:34:28;;;;;;;5.18;1.30;;;;;;;27.80;17.29;97482.88;10569986;28;20051;-70
2023/06/13 12:40:12;;;;;;;7.57;1.77;;;;;;;26.85;18.00;97490.25;10570006;28;20051;-69
2023/06/13 12:45:34;;;;;;;4.57;2.15;;;;;;;26.06;18.89;97490.16;10556545;28;20373;-69
2023/06/13 12:50:58;;;;;;;3.97;1.85;;;;;;;25.39;19.10;97491.31;10555713;28;20043;-69
2023/06/13 12:56:19;;;;;;;6.50;1.73;;;;;;;24.86;20.33;97500.94;10555419;28;20063;-69
2023/06/13 13:01:40;;;;;;;9.38;1.73;;;;;;;24.51;21.06;97497.81;10584249;28;20063;-69
2023/06/13 13:07:02;;;;;;;3.88;1.70;;;;;;;24.14;21.35;97497.47;10569228;28;20069;-69
2023/06/13 13:12:23;;;;;;;6.20;1.63;;;;;;;23.16;25.24;97528.97;10569099;28;20477;-69
2023/06/13 13:17:43;;;;;;;3.72;1.38;;;;;;;21.31;30.85;97549.69;10568528;28;20114;-69
2023/06/13 13:23:04;;;;;;;4.82;1.55;;;;;;;20.40;34.41;97558.78;10554140;28;20039;-68
2023/06/13 13:28:25;;;;;;;5.80;1.95;;;;;;;20.09;36.37;97543.81;10582898;28;20052;-68
2023/06/13 13:33:46;;;;;;;5.20;1.80;;;;;;;19.79;37.92;97549.38;10553785;28;20071;-68
2023/06/13 13:39:08;;;;;;;5.07;1.80;;;;;;;19.56;38.79;97545.16;10583181;28;20375;-69
2023/06/13 13:44:29;;;;;;;7.10;1.77;;;;;;;19.88;39.18;97553.88;10539888;28;20075;-68
2023/06/13 13:49:50;;;;;;;7.80;2.17;;;;;;;19.97;39.33;97552.69;10567315;28;20047;-68
2023/06/13 13:55:12;;;;;;;7.45;2.08;;;;;;;19.80;39.59;97567.09;10552736;28;20048;-68
2023/06/13 14:00:33;;;;;;;7.68;2.15;;;;;;;19.61;39.99;97568.66;10553123;28;20044;-68
2023/06/13 14:05:54;;;;;;;4.10;1.70;;;;;;;19.47;39.94;97571.75;10566575;28;20101;-68
2023/06/13 14:11:15;;;;;;;2.90;1.50;;;;;;;19.67;39.83;97560.34;10581300;28;20079;-68
2023/06/13 14:16:36;;;;;;;5.55;1.70;;;;;;;19.76;39.90;97573.34;10552160;28;20044;-68
2023/06/13 14:21:57;;;;;;;5.57;1.52;;;;;;;19.70;39.85;97571.06;10581176;28;20071;-68
2023/06/13 14:27:18;;;;;;;3.53;1.52;;;;;;;19.36;40.37;97572.84;10551805;28;20050;-68
2023/06/13 14:32:39;;;;;;;2.30;1.77;;;;;;;18.88;41.43;97562.19;10565476;28;20050;-68
2023/06/13 14:38:00;;;;;;;2.33;1.45;;;;;;;18.81;41.88;97549.22;10565869;28;20060;-67
2023/06/13 14:43:21;;;;;;;6.55;2.08;;;;;;;18.33;42.97;97544.75;10550574;28;20123;-68
2023/06/13 14:48:42;;;;;;;2.85;1.95;;;;;;;18.09;43.46;97536.19;10579738;28;20052;-67
2023/06/13 14:54:03;;;;;;;4.95;1.73;;;;;;;18.10;43.76;97540.44;10580049;28;20089;-69
2023/06/13 14:59:24;;;;;;;6.43;1.73;;;;;;;18.01;43.90;97534.53;10579590;28;20397;-67
2023/06/13 15:04:45;;;;;;;4.20;1.67;;;;;;;18.09;43.90;97558.78;10565303;28;20519;-69
2023/06/13 15:10:06;;;;;;;7.43;2.25;;;;;;;18.12;44.28;97554.63;10579368;28;20039;-67
2023/06/13 15:15:27;;;;;;;5.57;1.92;;;;;;;18.15;44.34;97533.59;10565024;28;20043;-68
2023/06/13 15:20:48;;;;;;;4.90;2.10;;;;;;;18.05;44.84;97527.56;10579860;28;20060;-68
2023/06/13 15:26:09;;;;;;;5.15;2.05;;;;;;;17.86;45.34;97531.88;10594444;28;20065;-67
2023/06/13 15:31:30;;;;;;;3.83;1.83;;;;;;;17.73;46.60;97539.88;10579365;28;20046;-68
2023/06/13 15:36:51;;;;;;;5.28;2.25;;;;;;;17.55;47.17;97541.28;10578875;28;20067;-69
2023/06/13 15:42:11;;;;;;;3.50;2.00;;;;;;;17.39;47.40;97536.50;10579102;28;20489;-69
2023/06/13 15:47:32;;;;;;;5.50;1.90;;;;;;;17.28;48.18;97534.66;10578750;28;20047;-68
2023/06/13 15:52:54;;;;;;;3.47;2.00;;;;;;;17.13;48.76;97529.84;10589620;28;20070;-69
2023/06/13 15:58:15;;;;;;;5.80;1.90;;;;;;;16.93;49.98;97512.88;10571909;28;20383;-69
2023/06/13 16:03:36;;;;;;;3.67;1.80;;;;;;;16.81;50.42;97501.84;10586566;28;20050;-68
2023/06/13 16:08:57;;;;;;;5.00;2.30;;;;;;;16.66;51.62;97494.16;10557318;28;20078;-68
2023/06/13 16:14:18;;;;;;;4.40;2.03;;;;;;;16.60;51.91;97500.31;10556922;28;20043;-69
2023/06/13 16:19:38;;;;;;;4.55;2.33;;;;;;;16.68;52.63;97502.72;10556904;28;20044;-68
2023/06/13 16:24:59;;;;;;;4.43;2.63;;;;;;;16.73;52.59;97518.44;10570833;28;20046;-68
2023/06/13 16:30:21;;;;;;;5.78;2.25;;;;;;;16.83;52.33;97510.38;10542711;28;20043;-68
2023/06/13 16:35:42;;;;;;;6.57;2.53;;;;;;;16.82;52.97;97505.38;10570095;28;20045;-69
2023/06/13 16:41:03;;;;;;;5.43;2.83;;;;;;;16.91;52.86;97506.44;10555980;28;20097;-69
2023/06/13 16:46:28;;;;;;;6.07;2.78;;;;;;;17.02;53.53;97522.38;10570003;28;20071;-68
2023/06/13 16:51:49;;;;;;;4.53;3.00;;;;;;;17.11;53.18;97519.22;10569719;28;20038;-68
2023/06/13 16:57:10;;;;;;;9.68;3.75;;;;;;;17.31;53.40;97513.63;10584702;28;20047;-67
2023/06/13 17:02:30;;;;;;;5.05;2.78;;;;;;;17.30;53.09;97517.09;10583620;28;20497;-68
2023/06/13 17:07:51;;;;;;;5.40;2.65;;;;;;;17.23;53.42;97518.94;10569244;28;20043;-68
2023/06/13 17:13:12;;;;;;;5.18;2.50;;;;;;;17.23;53.49;97513.31;10568595;28;20065;-68
2023/06/13 17:18:33;;;;;;;5.88;2.30;;;;;;;17.34;53.99;97506.66;10568758;28;20063;-68
2023/06/13 17:23:57;;;;;;;5.60;2.97;;;;;;;17.53;53.52;97515.81;10568652;28;20063;-68
2023/06/13 17:29:18;;;;;;;5.38;2.70;;;;;;;17.52;53.28;97517.19;10540518;28;20054;-68
2023/06/13 17:34:39;;;;;;;4.78;2.65;;;;;;;17.69;53.16;97517.16;10583362;28;20081;-69
2023/06/13 17:40:01;;;;;;;4.80;2.78;;;;;;;17.96;52.67;97513.19;10582890;28;20039;-68
2023/06/13 17:45:21;;;;;;;4.65;2.55;;;;;;;18.05;52.80;97504.97;10567917;28;20445;-69
2023/06/13 17:50:42;;;;;;;4.10;2.42;;;;;;;18.27;52.29;97511.38;10539330;28;20448;-69
2023/06/13 17:56:13;;;;;;;5.38;2.70;;;;;;;18.43;52.25;97520.41;10582657;28;20093;-68
2023/06/13 18:01:35;;;;;;;6.65;3.92;;;;;;;18.31;52.05;97520.00;10553567;28;20047;-68
2023/06/13 18:06:56;;;;;;;7.38;2.47;;;;;;;17.92;52.01;97523.59;10538894;28;20051;-69
2023/06/13 18:12:17;;;;;;;3.85;2.60;;;;;;;17.38;53.09;97512.47;10566972;28;20477;-69
2023/06/13 18:17:42;;;;;;;2.97;2.20;;;;;;;17.30;53.07;97515.00;10553438;28;20050;-69
2023/06/13 18:23:05;;;;;;;6.93;2.38;;;;;;;17.08;53.42;97523.34;10566714;28;20047;-69
2023/06/13 18:28:27;;;;;;;3.47;2.67;;;;;;;16.81;53.80;97530.03;10566421;28;20054;-69
2023/06/13 18:33:49;;;;;;;4.15;2.70;;;;;;;16.56;54.81;97522.66;10566270;28;20050;-69
2023/06/13 18:39:10;;;;;;;4.75;2.70;;;;;;;16.53;55.64;97523.22;10566363;28;20063;-69
2023/06/13 18:44:31;;;;;;;3.95;2.80;;;;;;;16.49;55.77;97528.69;10552146;28;20036;-69
2023/06/13 18:49:52;;;;;;;4.22;2.78;;;;;;;16.36;56.98;97521.09;10552034;28;20066;-68
2023/06/13 18:55:13;;;;;;;3.97;2.67;;;;;;;16.29;57.21;97537.75;10551905;28;20096;-69
2023/06/13 19:00:35;;;;;;;6.65;3.05;;;;;;;16.14;57.33;97535.00;10552062;28;20396;-69
2023/06/13 19:05:57;;;;;;;7.03;3.00;;;;;;;16.06;58.25;97548.72;10551879;28;20177;-68
2023/06/13 19:11:18;;;;;;;6.90;2.67;;;;;;;15.99;58.55;97550.53;10552655;28;20043;-69
2023/06/13 19:16:40;;;;;;;5.43;2.85;;;;;;;15.90;58.85;97549.47;10551521;28;20039;-69
2023/06/13 19:22:02;;;;;;;4.70;3.22;;;;;;;15.85;59.83;97550.66;10565567;28;20040;-68
2023/06/13 19:27:25;;;;;;;8.70;3.05;;;;;;;15.82;60.10;97577.25;10568205;28;20047;-69
2023/06/13 19:32:46;;;;;;;6.43;3.15;;;;;;;15.74;60.95;97571.28;10588309;28;20122;-69
2023/06/13 19:38:08;;;;;;;4.93;2.70;;;;;;;15.77;61.23;97572.09;10588036;28;20085;-68
2023/06/13 19:43:30;;;;;;;6.05;3.55;;;;;;;15.62;61.70;97582.69;10588137;28;20142;-69
2023/06/13 19:48:51;;;;;;;10.35;4.68;;;;;;;15.53;62.10;97586.47;10572622;28;20104;-68
2023/06/13 19:54:12;;;;;;;8.38;3.25;;;;;;;15.50;62.74;97592.66;10572443;28;20508;-68
2023/06/13 19:59:37;;;;;;;4.28;3.00;;;;;;;15.46;63.26;97598.81;10587133;28;20039;-68
2023/06/13 20:04:59;;;;;;;4.80;3.53;;;;;;;15.37;63.54;97597.00;10572683;28;20135;-68
2023/06/13 20:10:21;;;;;;;4.40;2.78;;;;;;;15.17;64.51;97602.41;10558010;28;20040;-69
2023/06/13 20:15:43;;;;;;;4.60;3.05;;;;;;;15.01;64.43;97604.44;10586540;28;20035;-68
2023/06/13 20:21:05;;;;;;;4.63;3.13;;;;;;;14.78;65.57;97611.78;10557341;28;20051;-68
2023/06/13 20:26:27;;;;;;;3.78;2.63;;;;;;;14.66;66.44;97613.25;10586377;28;20051;-69
2023/06/13 20:31:48;;;;;;;5.63;3.33;;;;;;;14.69;66.27;97617.63;10571011;28;20039;-69
2023/06/13 20:37:09;;;;;;;5.18;2.97;;;;;;;14.72;66.36;97622.00;10570119;28;20071;-68
2023/06/13 20:42:31;;;;;;;6.63;2.70;;;;;;;14.73;66.50;97623.44;10556481;28;20040;-68
2023/06/13 20:47:56;;;;;;;4.55;2.67;;;;;;;14.78;66.84;97628.66;10556265;28;20047;-69
2023/06/13 20:53:18;;;;;;;4.82;2.17;;;;;;;14.78;67.15;97614.59;10543441;28;20089;-68
2023/06/13 20:58:40;;;;;;;5.30;2.90;;;;;;;14.81;67.27;97618.22;10556151;28;20040;-68
2023/06/13 21:04:00;;;;;;;3.45;2.65;;;;;;;14.80;67.36;97616.78;10555036;28;20511;-68
2023/06/13 21:09:25;;;;;;;5.07;2.65;;;;;;;14.81;66.78;97621.03;10569520;28;20044;-68
2023/06/13 21:14:46;;;;;;;4.38;2.40;;;;;;;14.76;66.61;97616.56;10584236;28;20489;-68
2023/06/13 21:20:07;;;;;;;3.28;2.20;;;;;;;14.67;65.51;97621.06;10584504;28;20221;-68
2023/06/13 21:25:28;;;;;;;4.60;1.88;;;;;;;14.58;65.87;97614.31;10584073;28;20039;-68
2023/06/13 21:30:50;;;;;;;6.38;2.22;;;;;;;14.56;65.59;97622.63;10568484;28;20512;-68
2023/06/13 21:36:11;;;;;;;3.17;2.42;;;;;;;14.55;64.67;97632.41;10568275;28;20070;-68
2023/06/13 21:41:32;;;;;;;2.47;1.60;;;;;;;14.51;64.70;97626.59;10554006;28;20067;-68
2023/06/13 21:46:53;;;;;;;2.70;2.08;;;;;;;14.48;64.93;97627.13;10568136;28;20066;-69
2023/06/13 21:52:16;;;;;;;4.45;2.35;;;;;;;14.45;64.71;97628.38;10552825;28;20396;-68
2023/06/13 21:57:37;;;;;;;3.55;2.38;;;;;;;14.43;64.93;97631.06;10553526;28;20452;-68
2023/06/13 22:02:58;;;;;;;4.60;2.10;;;;;;;14.36;64.90;97637.69;10553687;28;20524;-68
2023/06/13 22:08:19;;;;;;;4.57;2.25;;;;;;;14.28;65.28;97638.78;10552841;28;20110;-68
2023/06/13 22:13:40;;;;;;;3.22;2.00;;;;;;;14.18;65.34;97643.09;10567089;28;20534;-68
2023/06/13 22:19:01;;;;;;;2.80;2.00;;;;;;;14.09;65.49;97633.56;10581807;28;20044;-68
2023/06/13 22:24:23;;;;;;;4.78;2.40;;;;;;;14.06;66.08;97645.28;10552600;28;20122;-68
2023/06/13 22:29:45;;;;;;;3.40;1.90;;;;;;;13.97;66.33;97639.25;10566615;28;20079;-69
2023/06/13 22:35:10;;;;;;;3.60;1.80;;;;;;;13.85;66.51;97632.28;10566638;28;20043;-68
2023/06/13 22:40:30;;;;;;;3.67;2.28;;;;;;;13.71;67.09;97635.06;10566187;28;20119;-68
2023/06/13 22:45:51;;;;;;;4.90;2.40;;;;;;;13.53;67.12;97634.81;10552003;28;20506;-68
2023/06/13 22:51:12;;;;;;;5.38;2.35;;;;;;;13.38;67.76;97638.91;10566245;28;20123;-68
2023/06/13 22:56:32;;;;;;;2.90;2.00;;;;;;;13.24;68.09;97635.34;10581035;28;20115;-68
2023/06/13 23:01:53;;;;;;;4.13;2.05;;;;;;;13.13;68.59;97636.09;10569617;28;20059;-69
2023/06/13 23:07:13;;;;;;;6.90;2.45;;;;;;;13.02;69.19;97625.63;10560087;28;20075;-69
2023/06/13 23:12:34;;;;;;;3.72;2.10;;;;;;;12.86;70.10;97637.41;10589508;28;20074;-68
2023/06/13 23:17:55;;;;;;;2.88;2.20;;;;;;;12.81;70.41;97634.97;10559903;28;20426;-69
2023/06/13 23:23:17;;;;;;;5.38;2.28;;;;;;;12.74;70.39;97638.78;10573839;28;20067;-68
2023/06/13 23:28:38;;;;;;;3.00;1.98;;;;;;;12.70;70.80;97630.88;10588846;28;20071;-68
2023/06/13 23:33:59;;;;;;;4.15;2.15;;;;;;;12.64;70.70;97627.72;10588491;28;20067;-68
2023/06/13 23:39:20;;;;;;;3.38;2.22;;;;;;;12.57;70.88;97632.25;10588219;28;20366;-69
2023/06/13 23:44:44;;;;;;;4.63;2.38;;;;;;;12.47;71.56;97628.88;10573054;28;20109;-68
2023/06/13 23:50:05;;;;;;;3.80;1.90;;;;;;;12.45;71.26;97639.19;10558360;28;20035;-68
2023/06/13 23:55:26;;;;;;;5.25;2.13;;;;;;;12.41;71.41;97636.16;10587737;28;20579;-68
